Time;durP1;ratioP1;P1;durP2;ratioP2;P2;SDS_P1;SDS_P2;PMS_P1;PMS_P2;Temp;Humidity;BMP_temperature;BMP_pressure;BME280_temperature;BME280_humidity;BME280_pressure;Samples;Min_cycle;Max_cycle;Signal;HPM_P1;HPM_P2
2024/03/13 00:00:30;;;;;;;6.90;5.53;;;;;;;7.35;100.00;153249.25;5029326;28;20456;-93
2024/03/13 00:02:58;;;;;;;7.03;4.63;;;;;;;7.31;100.00;153238.88;4998641;28;20448;-93
2024/03/13 00:05:25;;;;;;;5.90;4.97;;;;;;;7.33;100.00;153242.78;5031571;28;20460;-94
2024/03/13 00:07:51;;;;;;;5.10;4.40;;;;;;;7.28;100.00;153229.88;5031773;28;20475;-93
2024/03/13 00:10:18;;;;;;;5.77;4.70;;;;;;;7.25;100.00;153223.38;5013092;28;20505;-92
2024/03/13 00:12:44;;;;;;;5.87;3.87;;;;;;;7.24;100.00;153220.81;5013560;28;21036;-93
2024/03/13 00:15:11;;;;;;;6.63;4.33;;;;;;;7.16;100.00;153200.16;5027291;28;20457;-92
2024/03/13 00:17:38;;;;;;;5.80;3.80;;;;;;;7.13;100.00;153191.09;5006798;28;20517;-91
2024/03/13 00:20:11;;;;;;;3.33;2.87;;;;;;;7.14;100.00;153193.72;5011613;28;20455;-91
2024/03/13 00:22:37;;;;;;;5.47;3.43;;;;;;;7.15;100.00;153196.25;5024511;28;20880;-91
2024/03/13 00:25:10;;;;;;;4.10;2.90;;;;;;;7.12;100.00;153188.56;5029574;28;20466;-91
2024/03/13 00:27:37;;;;;;;3.30;2.57;;;;;;;7.11;100.00;153187.25;5012458;28;20502;-91
2024/03/13 00:30:05;;;;;;;2.60;2.00;;;;;;;7.11;100.00;153187.25;5005240;28;20539;-92
2024/03/13 00:32:32;;;;;;;4.10;2.67;;;;;;;7.09;100.00;153182.09;5017083;28;20792;-91
2024/03/13 00:35:01;;;;;;;3.80;2.43;;;;;;;7.09;100.00;153180.81;5028314;28;20509;-91
2024/03/13 00:37:28;;;;;;;3.10;2.17;;;;;;;7.06;100.00;153174.34;5015273;28;20441;-91
2024/03/13 00:39:58;;;;;;;3.77;2.30;;;;;;;7.01;100.00;153161.44;5028656;28;20795;-90
2024/03/13 00:42:24;;;;;;;2.83;2.10;;;;;;;6.97;100.00;153149.78;5025988;28;20460;-90
2024/03/13 00:44:52;;;;;;;3.33;2.50;;;;;;;7.02;100.00;153164.00;5028637;28;20545;-91
2024/03/13 00:47:19;;;;;;;2.47;2.27;;;;;;;7.02;100.00;153164.00;5010017;28;20443;-92
2024/03/13 00:49:45;;;;;;;2.37;2.17;;;;;;;6.98;100.00;153153.69;5025758;28;20490;-91
2024/03/13 00:52:12;;;;;;;3.57;2.53;;;;;;;6.97;100.00;153149.78;5029407;28;20526;-92
2024/03/13 00:54:45;;;;;;;4.00;2.70;;;;;;;6.93;100.00;153140.78;5018894;28;20215;-92
2024/03/13 00:57:12;;;;;;;2.50;2.30;;;;;;;6.91;100.00;153135.59;5028019;28;20444;-91
2024/03/13 00:59:40;;;;;;;2.00;1.57;;;;;;;6.92;100.00;153138.19;4994674;28;20486;-92
2024/03/13 01:02:08;;;;;;;4.40;2.03;;;;;;;6.90;100.00;153133.03;5023439;28;20535;-92
2024/03/13 01:04:35;;;;;;;2.33;1.80;;;;;;;6.90;100.00;153133.03;5010412;28;20523;-92
2024/03/13 01:07:02;;;;;;;2.33;1.70;;;;;;;6.90;100.00;153133.03;5008395;28;20456;-92
2024/03/13 01:09:28;;;;;;;2.73;2.07;;;;;;;6.89;100.00;153130.44;5017195;28;20516;-92
2024/03/13 01:11:56;;;;;;;3.47;2.07;;;;;;;6.92;100.00;153136.88;5008171;28;20494;-92
2024/03/13 01:14:22;;;;;;;2.23;1.80;;;;;;;6.87;100.00;153125.28;5031764;28;20881;-93
2024/03/13 01:16:51;;;;;;;2.67;1.90;;;;;;;6.84;100.00;153117.53;5032196;28;20440;-93
2024/03/13 01:19:19;;;;;;;2.30;1.70;;;;;;;6.87;100.00;153125.28;5032019;28;20444;-94
2024/03/13 01:21:48;;;;;;;3.80;1.80;;;;;;;6.86;100.00;153121.44;5032019;28;20486;-93
2024/03/13 01:24:17;;;;;;;1.90;1.80;;;;;;;6.81;100.00;153109.78;5031950;28;20459;-94
2024/03/13 01:26:43;;;;;;;3.17;1.70;;;;;;;6.84;100.00;153117.53;5031989;28;20490;-94
2024/03/13 01:29:11;;;;;;;2.63;1.70;;;;;;;6.82;100.00;153112.38;5015093;28;21314;-94
2024/03/13 01:31:38;;;;;;;4.37;1.90;;;;;;;6.82;100.00;153111.06;4996622;28;20991;-94
2024/03/13 01:34:05;;;;;;;2.30;1.70;;;;;;;6.82;100.00;153112.38;5013199;28;21005;-93
2024/03/13 01:39:17;;;;;;;1.47;1.03;;;;;;;6.85;100.00;153120.13;4994183;28;20451;-92
2024/03/13 01:55:35;;;;;;;1.33;1.17;;;;;;;6.85;100.00;153120.13;5011893;28;20479;-93
2024/03/13 01:58:19;;;;;;;5.00;1.43;;;;;;;6.86;100.00;153121.44;4977862;28;20429;-94
2024/03/13 02:03:31;;;;;;;1.57;1.23;;;;;;;6.87;100.00;153125.28;5030099;28;20439;-93
2024/03/13 02:06:00;;;;;;;1.67;1.00;;;;;;;6.87;100.00;153125.28;5026456;28;20433;-92
2024/03/13 02:08:28;;;;;;;2.17;1.53;;;;;;;6.86;100.00;153122.69;4993590;28;20519;-93
2024/03/13 02:10:57;;;;;;;3.00;2.20;;;;;;;6.84;100.00;153116.22;5011922;28;20986;-93
2024/03/13 02:13:24;;;;;;;1.93;1.30;;;;;;;6.75;100.00;153094.31;4993250;28;20527;-93
2024/03/13 02:15:53;;;;;;;1.53;1.20;;;;;;;6.74;100.00;153091.72;4977385;28;20943;-94
2024/03/13 02:18:21;;;;;;;1.37;0.93;;;;;;;6.75;100.00;153094.31;4994071;28;20975;-94
2024/03/13 02:20:49;;;;;;;1.40;1.20;;;;;;;6.79;100.00;153103.31;4993909;28;20449;-94
2024/03/13 02:23:20;;;;;;;1.10;0.90;;;;;;;6.82;100.00;153111.06;4993923;28;20932;-94
2024/03/13 02:25:48;;;;;;;1.43;0.93;;;;;;;6.82;100.00;153111.06;4978154;28;20437;-94
2024/03/13 02:28:15;;;;;;;1.13;0.73;;;;;;;6.78;100.00;153100.78;4978188;28;20836;-95
2024/03/13 02:30:42;;;;;;;1.10;0.80;;;;;;;6.71;100.00;153083.97;4978006;28;20900;-94
2024/03/13 02:33:11;;;;;;;1.50;1.00;;;;;;;6.70;100.00;153081.38;4978056;28;20539;-94
2024/03/13 02:35:40;;;;;;;0.97;0.80;;;;;;;6.72;100.00;153086.56;4962708;28;20453;-93
2024/03/13 02:38:07;;;;;;;1.20;0.70;;;;;;;6.70;100.00;153082.66;4978457;28;20466;-94
2024/03/13 02:40:34;;;;;;;1.10;0.73;;;;;;;6.69;100.00;153078.81;4961740;28;20487;-95
2024/03/13 02:43:00;;;;;;;2.33;1.10;;;;;;;6.69;100.00;153078.81;4977903;28;20490;-95
2024/03/13 02:45:27;;;;;;;1.03;0.70;;;;;;;6.69;100.00;153078.81;4961465;28;20449;-93
2024/03/13 02:47:53;;;;;;;1.83;1.30;;;;;;;6.66;100.00;153072.38;4977576;28;20203;-94
2024/03/13 02:50:20;;;;;;;1.50;1.10;;;;;;;6.65;100.00;153068.47;4977283;28;20578;-95
2024/03/13 02:52:47;;;;;;;2.03;1.63;;;;;;;6.59;100.00;153053.00;4971215;28;20437;-93
2024/03/13 02:55:14;;;;;;;2.23;1.70;;;;;;;6.51;100.00;153032.38;5009438;28;20531;-94
2024/03/13 02:57:40;;;;;;;2.00;1.60;;;;;;;6.49;100.00;153028.47;5009703;28;20523;-94
2024/03/13 03:00:08;;;;;;;3.00;2.10;;;;;;;6.45;100.00;153018.16;4993093;28;20468;-94
2024/03/13 03:02:34;;;;;;;1.83;1.50;;;;;;;6.42;100.00;153009.13;4977439;28;20448;-93
2024/03/13 03:05:01;;;;;;;2.03;1.80;;;;;;;6.44;100.00;153015.56;4993431;28;20861;-92
2024/03/13 03:07:28;;;;;;;2.30;1.90;;;;;;;6.44;100.00;153014.28;5009694;28;20471;-93
2024/03/13 03:09:55;;;;;;;3.57;1.87;;;;;;;6.42;100.00;153009.13;4993076;28;20482;-94
2024/03/13 03:12:21;;;;;;;2.87;1.97;;;;;;;6.41;100.00;153006.53;5009612;28;20435;-94
2024/03/13 03:14:48;;;;;;;2.63;1.80;;;;;;;6.44;100.00;153014.28;5009605;28;20440;-94
2024/03/13 03:17:16;;;;;;;3.10;1.83;;;;;;;6.47;100.00;153022.00;4992850;28;20433;-93
2024/03/13 03:19:43;;;;;;;2.40;1.37;;;;;;;6.46;100.00;153019.47;5009378;28;20444;-94
2024/03/13 03:22:09;;;;;;;1.83;1.40;;;;;;;6.42;100.00;153009.13;4994673;28;20440;-93
2024/03/13 03:24:36;;;;;;;2.60;1.80;;;;;;;6.45;100.00;153016.88;4996474;28;20796;-93
2024/03/13 03:27:05;;;;;;;1.50;1.30;;;;;;;6.42;100.00;153010.41;5000106;28;20438;-92
2024/03/13 03:29:31;;;;;;;2.70;1.27;;;;;;;6.41;100.00;153007.81;5000436;28;20479;-93
2024/03/13 03:31:58;;;;;;;2.13;1.50;;;;;;;6.43;100.00;153011.72;5000181;28;20847;-94
2024/03/13 03:34:25;;;;;;;1.33;1.10;;;;;;;6.33;100.00;152985.91;5000059;28;20447;-94
2024/03/13 03:36:52;;;;;;;1.90;1.10;;;;;;;6.26;100.00;152967.81;5000787;28;20448;-93
2024/03/13 03:39:24;;;;;;;1.73;1.40;;;;;;;6.19;100.00;152949.78;5001797;28;20470;-94
2024/03/13 03:41:51;;;;;;;1.73;1.23;;;;;;;6.12;100.00;152934.28;5001106;28;20631;-94
2024/03/13 03:44:18;;;;;;;1.67;1.33;;;;;;;6.08;100.00;152923.97;5000033;28;20431;-93
2024/03/13 03:46:45;;;;;;;1.03;0.90;;;;;;;6.13;100.00;152936.88;5000267;28;20431;-95
2024/03/13 03:49:12;;;;;;;1.60;1.10;;;;;;;6.21;100.00;152956.22;4999846;28;20529;-94
2024/03/13 03:51:38;;;;;;;1.90;1.23;;;;;;;6.25;100.00;152966.53;4999913;28;20440;-95
2024/03/13 03:54:05;;;;;;;2.13;1.40;;;;;;;6.28;100.00;152972.97;4999488;28;20459;-94
2024/03/13 03:56:38;;;;;;;1.93;1.57;;;;;;;6.20;100.00;152953.63;4983989;28;20471;-94
2024/03/13 03:59:05;;;;;;;1.63;1.30;;;;;;;6.23;100.00;152960.06;5001357;28;20498;-94
2024/03/13 04:01:32;;;;;;;1.70;1.40;;;;;;;6.28;100.00;152972.97;4999485;28;20799;-94
2024/03/13 04:03:59;;;;;;;1.40;1.10;;;;;;;6.30;100.00;152979.41;4999470;28;20505;-94
2024/03/13 04:06:26;;;;;;;1.43;1.13;;;;;;;6.28;100.00;152974.28;4999530;28;20918;-93
2024/03/13 04:08:54;;;;;;;1.53;1.00;;;;;;;6.28;100.00;152972.97;4982730;28;20490;-93
2024/03/13 04:11:20;;;;;;;2.33;1.17;;;;;;;6.27;100.00;152970.41;4983517;28;20953;-94
2024/03/13 04:13:47;;;;;;;1.90;1.30;;;;;;;6.32;100.00;152983.31;4997982;28;20464;-94
2024/03/13 04:16:16;;;;;;;1.47;1.20;;;;;;;6.30;100.00;152978.16;4982475;28;20494;-93
2024/03/13 04:18:43;;;;;;;1.77;1.10;;;;;;;6.30;100.00;152978.16;4998517;28;20530;-94
2024/03/13 04:21:10;;;;;;;2.17;1.33;;;;;;;6.30;100.00;152979.41;4990637;28;20433;-93
2024/03/13 04:23:38;;;;;;;1.90;1.17;;;;;;;6.33;100.00;152987.16;4981536;28;20444;-93
2024/03/13 04:26:05;;;;;;;2.07;1.57;;;;;;;6.31;100.00;152980.72;4978383;28;20451;-93
2024/03/13 04:28:31;;;;;;;2.50;1.83;;;;;;;6.28;100.00;152972.97;5012983;28;20849;-91
2024/03/13 04:31:00;;;;;;;2.70;1.70;;;;;;;6.31;100.00;152980.72;5013352;28;20495;-92
2024/03/13 04:33:28;;;;;;;2.07;1.87;;;;;;;6.28;100.00;152972.97;4980645;28;20437;-93
2024/03/13 04:35:56;;;;;;;3.00;2.10;;;;;;;6.30;100.00;152978.16;4997743;28;20460;-93
2024/03/13 04:38:24;;;;;;;2.90;2.60;;;;;;;6.30;100.00;152979.41;4981817;28;20436;-93
2024/03/13 04:40:51;;;;;;;2.83;2.20;;;;;;;6.26;100.00;152967.81;4998368;28;20538;-93
2024/03/13 04:43:17;;;;;;;3.20;2.70;;;;;;;6.25;100.00;152966.53;4998456;28;20560;-92
2024/03/13 04:45:44;;;;;;;4.67;3.20;;;;;;;6.20;100.00;152953.63;5002926;28;20454;-93
2024/03/13 04:48:13;;;;;;;3.07;2.77;;;;;;;6.19;100.00;152951.06;5001521;28;21028;-93
2024/03/13 04:50:39;;;;;;;5.77;2.77;;;;;;;6.23;100.00;152960.06;5025928;28;20591;-94
2024/03/13 04:53:06;;;;;;;4.30;2.77;;;;;;;6.25;100.00;152965.28;4970069;28;20459;-92
2024/03/13 04:55:33;;;;;;;3.73;2.93;;;;;;;6.27;100.00;152970.41;4997376;28;20451;-93
2024/03/13 04:57:59;;;;;;;4.00;3.40;;;;;;;6.22;100.00;152958.81;5013603;28;20456;-94
2024/03/13 05:00:26;;;;;;;4.03;2.90;;;;;;;6.25;100.00;152965.28;4997674;28;20463;-93
2024/03/13 05:02:54;;;;;;;3.83;2.60;;;;;;;6.24;100.00;152963.97;5018459;28;20559;-92
2024/03/13 05:05:21;;;;;;;3.80;2.80;;;;;;;6.25;100.00;152966.53;4980025;28;20464;-93
2024/03/13 05:07:47;;;;;;;5.37;3.57;;;;;;;6.25;100.00;152965.28;4996565;28;20569;-92
2024/03/13 05:10:16;;;;;;;4.57;2.80;;;;;;;6.27;100.00;152970.41;4959141;28;20469;-93
2024/03/13 05:12:43;;;;;;;3.87;3.07;;;;;;;6.29;100.00;152975.56;4979758;28;20471;-93
2024/03/13 05:15:10;;;;;;;6.00;3.70;;;;;;;6.32;100.00;152984.63;4997587;28;20545;-92
2024/03/13 05:17:38;;;;;;;4.07;3.40;;;;;;;6.36;100.00;152993.63;4984209;28;20459;-94
2024/03/13 05:20:07;;;;;;;4.10;3.00;;;;;;;6.36;100.00;152993.63;4996142;28;20808;-94
2024/03/13 05:22:34;;;;;;;3.03;2.47;;;;;;;6.38;100.00;152998.81;4993723;28;20516;-93
2024/03/13 05:25:01;;;;;;;3.60;2.93;;;;;;;6.40;100.00;153005.28;4985813;28;20494;-94
2024/03/13 05:27:28;;;;;;;4.10;3.10;;;;;;;6.42;100.00;153009.13;4981718;28;20527;-94
2024/03/13 05:29:56;;;;;;;5.70;4.50;;;;;;;6.41;100.00;153006.53;4997533;28;20479;-93
2024/03/13 05:32:23;;;;;;;4.53;3.30;;;;;;;6.41;100.00;153007.81;4978973;28;20962;-92
2024/03/13 05:34:50;;;;;;;5.97;4.00;;;;;;;6.39;100.00;153002.66;4979023;28;20466;-93
2024/03/13 05:37:17;;;;;;;4.37;3.40;;;;;;;6.41;100.00;153006.53;4996132;28;20460;-93
2024/03/13 05:39:44;;;;;;;4.30;3.83;;;;;;;6.41;100.00;153006.53;4996810;28;20813;-92
2024/03/13 05:42:11;;;;;;;6.30;4.53;;;;;;;6.42;100.00;153010.41;4999691;28;20444;-92
2024/03/13 05:44:39;;;;;;;5.77;4.40;;;;;;;6.45;100.00;153016.88;4981795;28;20907;-92
2024/03/13 05:47:06;;;;;;;4.90;4.33;;;;;;;6.49;100.00;153027.16;4997871;28;20454;-92
2024/03/13 05:49:33;;;;;;;5.30;4.23;;;;;;;6.51;100.00;153033.63;5004192;28;20453;-92
2024/03/13 05:52:00;;;;;;;5.97;4.47;;;;;;;6.50;100.00;153029.75;4996837;28;20460;-94
2024/03/13 05:54:28;;;;;;;6.77;4.33;;;;;;;6.47;100.00;153022.00;4996895;28;20474;-93
2024/03/13 05:56:55;;;;;;;7.60;4.57;;;;;;;6.47;100.00;153022.00;4965359;28;20862;-91
2024/03/13 05:59:22;;;;;;;6.03;4.80;;;;;;;6.40;100.00;153003.97;4992004;28;20452;-93
2024/03/13 06:01:49;;;;;;;5.37;4.00;;;;;;;6.41;100.00;153006.53;4993630;28;20475;-93
2024/03/13 06:04:16;;;;;;;5.80;4.87;;;;;;;6.38;100.00;153000.06;4961558;28;21355;-92
2024/03/13 06:06:43;;;;;;;4.70;3.70;;;;;;;6.35;100.00;152991.06;4993624;28;20452;-93
2024/03/13 06:09:10;;;;;;;6.77;4.80;;;;;;;6.36;100.00;152993.63;4959719;28;20495;-92
2024/03/13 06:11:37;;;;;;;5.70;4.37;;;;;;;6.34;100.00;152989.78;4976273;28;20479;-93
2024/03/13 06:14:04;;;;;;;5.60;4.57;;;;;;;6.40;100.00;153003.97;4977783;28;20459;-93
2024/03/13 06:16:31;;;;;;;5.70;4.40;;;;;;;6.32;100.00;152984.63;4964026;28;20451;-93
2024/03/13 06:18:58;;;;;;;6.33;4.47;;;;;;;6.32;100.00;152983.31;4982601;28;21055;-93
2024/03/13 06:21:25;;;;;;;6.50;4.57;;;;;;;6.37;100.00;152996.22;5002522;28;20455;-94
2024/03/13 06:23:58;;;;;;;6.13;4.63;;;;;;;6.36;100.00;152994.91;4988431;28;20462;-93
2024/03/13 06:26:26;;;;;;;6.80;4.43;;;;;;;6.39;100.00;153001.38;4981276;28;20514;-92
2024/03/13 06:31:39;;;;;;;5.13;3.97;;;;;;;6.47;100.00;153022.00;4958656;28;20973;-93
2024/03/13 06:34:08;;;;;;;6.80;4.40;;;;;;;6.53;100.00;153037.50;4963390;28;20472;-93
2024/03/13 06:36:36;;;;;;;5.37;3.90;;;;;;;6.57;100.00;153047.81;4995014;28;20533;-93
2024/03/13 06:39:03;;;;;;;7.63;5.20;;;;;;;6.62;100.00;153062.03;4954935;28;20485;-93
2024/03/13 06:41:30;;;;;;;7.40;5.33;;;;;;;6.66;100.00;153072.38;4980717;28;20872;-93
2024/03/13 06:43:57;;;;;;;6.30;5.20;;;;;;;6.71;100.00;153085.28;4979078;28;20463;-92
2024/03/13 06:46:24;;;;;;;10.30;6.10;;;;;;;6.76;100.00;153096.88;4967193;28;20599;-92
2024/03/13 06:48:51;;;;;;;8.13;5.83;;;;;;;6.80;100.00;153105.91;4963612;28;20546;-92
2024/03/13 06:51:18;;;;;;;6.43;5.03;;;;;;;6.85;100.00;153118.81;4979053;28;20478;-92
2024/03/13 06:53:44;;;;;;;6.20;4.60;;;;;;;6.88;100.00;153127.88;4965813;28;20499;-91
2024/03/13 06:56:11;;;;;;;6.43;4.83;;;;;;;6.91;100.00;153134.34;4965562;28;20451;-92
2024/03/13 06:58:38;;;;;;;8.53;5.80;;;;;;;6.94;100.00;153142.03;4978319;28;20455;-92
2024/03/13 07:01:11;;;;;;;7.33;5.90;;;;;;;6.96;100.00;153148.53;4976831;28;20818;-92
2024/03/13 07:03:37;;;;;;;7.57;5.60;;;;;;;6.97;100.00;153149.78;4998599;28;20478;-92
2024/03/13 07:06:04;;;;;;;8.00;6.07;;;;;;;6.98;100.00;153153.69;4962866;28;20460;-93
2024/03/13 07:08:32;;;;;;;7.20;5.47;;;;;;;7.01;100.00;153160.13;4978854;28;20505;-91
2024/03/13 07:10:59;;;;;;;7.80;5.80;;;;;;;7.06;100.00;153173.03;4964776;28;20535;-91
2024/03/13 07:13:26;;;;;;;9.40;7.00;;;;;;;7.06;100.00;153174.34;4981912;28;20513;-91
2024/03/13 07:15:55;;;;;;;6.37;5.17;;;;;;;7.05;100.00;153171.75;4986285;28;20464;-91
2024/03/13 07:18:22;;;;;;;11.13;6.00;;;;;;;7.10;100.00;153183.34;4977836;28;20462;-91
2024/03/13 07:20:49;;;;;;;9.87;7.70;;;;;;;7.14;100.00;153195.00;4960551;28;20456;-91
2024/03/13 07:23:16;;;;;;;7.47;5.80;;;;;;;7.19;100.00;153206.63;4981308;28;20459;-90
2024/03/13 07:25:43;;;;;;;7.57;5.80;;;;;;;7.24;100.00;153220.81;4987236;28;20984;-91
2024/03/13 07:28:11;;;;;;;8.80;6.20;;;;;;;7.23;100.00;153216.91;4956227;28;20846;-91
2024/03/13 07:30:38;;;;;;;8.87;6.77;;;;;;;7.25;100.00;153223.38;4978807;28;20475;-91
2024/03/13 07:33:08;;;;;;;9.00;5.80;;;;;;;7.27;100.00;153228.56;4958824;28;20866;-91
2024/03/13 07:35:34;;;;;;;7.10;6.00;;;;;;;7.32;100.00;153241.47;4956766;28;20517;-91
2024/03/13 07:38:01;;;;;;;8.70;7.30;;;;;;;7.36;100.00;153251.78;4981180;28;20459;-91
2024/03/13 07:40:31;;;;;;;8.20;6.80;;;;;;;7.42;100.00;153266.00;4979246;28;20874;-90
2024/03/13 07:42:58;;;;;;;9.30;7.20;;;;;;;7.47;100.00;153277.63;4993096;28;20573;-90
2024/03/13 07:45:26;;;;;;;8.27;6.57;;;;;;;7.49;100.00;153284.13;4978610;28;20476;-90
2024/03/13 07:47:53;;;;;;;9.30;7.93;;;;;;;7.52;100.00;153291.81;4963294;28;20478;-89
2024/03/13 07:50:19;;;;;;;9.03;6.50;;;;;;;7.55;100.00;153299.59;4981076;28;20818;-90
2024/03/13 07:52:47;;;;;;;9.67;7.07;;;;;;;7.57;100.00;153304.72;4977586;28;20440;-90
2024/03/13 07:55:17;;;;;;;8.53;6.53;;;;;;;7.59;100.00;153308.63;4961248;28;20555;-90
2024/03/13 07:57:44;;;;;;;8.07;6.00;;;;;;;7.60;100.00;153312.50;4972098;28;20460;-90
2024/03/13 08:00:12;;;;;;;8.80;6.30;;;;;;;7.64;100.00;153322.84;5006007;28;20916;-90
2024/03/13 08:02:42;;;;;;;9.80;6.40;;;;;;;7.67;100.00;153329.31;4985228;28;20448;-90
2024/03/13 08:05:09;;;;;;;8.27;6.63;;;;;;;7.69;100.00;153334.47;4967068;28;20460;-89
2024/03/13 08:07:37;;;;;;;8.80;5.80;;;;;;;7.73;100.00;153344.81;4977053;28;20491;-90
2024/03/13 08:10:10;;;;;;;8.07;5.60;;;;;;;7.75;100.00;153351.28;4956747;28;20527;-90
2024/03/13 08:12:37;;;;;;;7.33;5.47;;;;;;;7.75;100.00;153349.97;4957996;28;20464;-90
2024/03/13 08:15:04;;;;;;;8.00;5.70;;;;;;;7.78;100.00;153358.97;4971300;28;20471;-91
2024/03/13 08:17:34;;;;;;;6.47;4.70;;;;;;;7.82;100.00;153368.03;4990875;23;20474;-75
2024/03/13 08:20:04;;;;;;;8.30;6.40;;;;;;;7.84;100.00;153374.50;5037566;28;20812;-75
2024/03/13 08:22:34;;;;;;;7.07;5.97;;;;;;;7.85;100.00;153375.81;5023478;28;20450;-76
2024/03/13 08:25:01;;;;;;;9.20;6.87;;;;;;;7.89;100.00;153386.13;5006483;28;20538;-76
2024/03/13 08:27:35;;;;;;;9.10;7.53;;;;;;;7.93;100.00;153396.47;5023256;28;20454;-75
2024/03/13 08:30:03;;;;;;;9.07;6.47;;;;;;;7.94;100.00;153400.34;5025956;28;20483;-75
2024/03/13 08:32:29;;;;;;;8.43;6.50;;;;;;;7.98;100.00;153409.41;5042387;28;20480;-74
2024/03/13 08:34:56;;;;;;;9.57;7.00;;;;;;;8.01;100.00;153417.16;5015061;28;20465;-75
2024/03/13 08:37:23;;;;;;;8.40;6.50;;;;;;;8.09;100.00;153436.53;5040019;28;20451;-75
2024/03/13 08:39:50;;;;;;;10.20;6.53;;;;;;;8.16;100.00;153454.59;5021094;28;20448;-74
2024/03/13 08:42:16;;;;;;;9.60;7.07;;;;;;;8.20;100.00;153464.97;5026109;28;20474;-74
2024/03/13 08:44:44;;;;;;;7.50;6.70;;;;;;;8.20;100.00;153466.28;5014674;28;20458;-75
2024/03/13 08:47:11;;;;;;;7.20;6.07;;;;;;;8.27;100.00;153484.41;5007479;28;20439;-75
2024/03/13 08:49:37;;;;;;;7.20;6.20;;;;;;;8.38;100.00;153511.53;5004957;28;20454;-74
2024/03/13 08:52:04;;;;;;;8.10;6.50;;;;;;;8.44;100.00;153528.34;5008489;28;20494;-74
2024/03/13 08:54:31;;;;;;;6.50;5.33;;;;;;;8.48;100.00;153537.38;5037004;28;20450;-74
2024/03/13 08:56:58;;;;;;;7.20;5.60;;;;;;;8.56;100.00;153559.38;5006077;28;20916;-74
2024/03/13 08:59:25;;;;;;;5.77;4.73;;;;;;;8.62;100.00;153573.59;5021424;28;20458;-75
2024/03/13 09:01:54;;;;;;;9.10;5.80;;;;;;;8.67;100.00;153585.22;5037141;28;20465;-74
2024/03/13 09:04:22;;;;;;;6.20;5.30;;;;;;;8.69;100.00;153591.66;5021334;28;20941;-75
2024/03/13 09:06:49;;;;;;;5.70;4.63;;;;;;;8.81;100.00;153621.41;4993125;28;20467;-74
2024/03/13 09:09:23;;;;;;;5.33;4.40;;;;;;;8.88;100.00;153640.81;5009134;28;20467;-74
2024/03/13 09:11:49;;;;;;;5.20;4.70;;;;;;;8.95;100.00;153657.59;5024133;28;20537;-74
2024/03/13 09:14:17;;;;;;;4.30;3.47;;;;;;;8.95;100.00;153658.91;5037062;28;20469;-74
2024/03/13 09:16:45;;;;;;;5.90;3.83;;;;;;;8.95;100.00;153658.91;5008491;28;20945;-75
2024/03/13 09:19:12;;;;;;;3.83;3.23;;;;;;;8.98;100.00;153666.66;5021435;28;20540;-75
2024/03/13 09:21:39;;;;;;;4.93;3.50;;;;;;;9.01;100.00;153673.13;5036696;28;20451;-75
2024/03/13 09:24:07;;;;;;;4.27;3.13;;;;;;;9.06;100.00;153686.06;5021095;28;20459;-75
2024/03/13 09:26:34;;;;;;;3.57;3.23;;;;;;;9.07;100.00;153689.97;5019630;28;20458;-75
2024/03/13 09:29:01;;;;;;;3.60;2.80;;;;;;;9.09;100.00;153695.13;5005880;28;20514;-75
2024/03/13 09:31:28;;;;;;;3.20;2.50;;;;;;;9.12;100.00;153702.88;5020753;28;20551;-75
2024/03/13 09:33:55;;;;;;;4.23;2.37;;;;;;;9.17;100.00;153715.81;5037138;28;20461;-75
2024/03/13 09:36:21;;;;;;;2.40;2.20;;;;;;;9.24;100.00;153732.59;5017721;28;20459;-75
2024/03/13 09:38:48;;;;;;;2.60;2.13;;;;;;;9.28;100.00;153741.69;5002843;28;20478;-75
2024/03/13 09:41:15;;;;;;;3.30;2.47;;;;;;;9.33;100.00;153754.59;5035713;28;20497;-74
2024/03/13 09:43:41;;;;;;;2.73;2.10;;;;;;;9.33;100.00;153755.91;5007493;28;20452;-75
2024/03/13 09:46:08;;;;;;;2.67;2.43;;;;;;;9.37;100.00;153766.22;5020396;28;20459;-75
2024/03/13 09:48:37;;;;;;;2.20;2.00;;;;;;;9.42;100.00;153779.22;5039001;28;20458;-75
2024/03/13 09:51:04;;;;;;;2.40;1.63;;;;;;;9.46;100.00;153789.53;5022106;28;20479;-75
2024/03/13 09:53:31;;;;;;;2.40;1.90;;;;;;;9.53;100.00;153807.63;5005218;28;20463;-75
2024/03/13 09:55:58;;;;;;;2.07;1.60;;;;;;;9.57;100.00;153818.00;5019802;28;20807;-75
2024/03/13 09:58:25;;;;;;;1.67;1.30;;;;;;;9.60;100.00;153824.47;5003889;28;20473;-75
2024/03/13 10:00:53;;;;;;;1.90;1.70;;;;;;;9.66;100.00;153841.25;5018998;28;20487;-75
2024/03/13 10:03:21;;;;;;;2.80;2.27;;;;;;;9.72;100.00;153856.81;5004140;28;20532;-75
2024/03/13 10:05:48;;;;;;;2.17;1.50;;;;;;;9.80;100.00;153877.50;5032175;28;20479;-75
2024/03/13 10:08:15;;;;;;;3.40;2.03;;;;;;;9.81;100.00;153878.81;4991958;28;20455;-75
2024/03/13 10:10:41;;;;;;;2.27;1.80;;;;;;;9.83;100.00;153883.97;5019254;28;20462;-75
2024/03/13 10:13:08;;;;;;;2.13;1.93;;;;;;;9.82;100.00;153880.13;5021492;28;20499;-75
2024/03/13 10:15:36;;;;;;;2.17;1.90;;;;;;;9.84;100.00;153885.28;5003371;28;20463;-75
2024/03/13 10:18:05;;;;;;;2.73;2.33;;;;;;;9.90;100.00;153900.81;5020621;28;20478;-75
2024/03/13 10:20:32;;;;;;;2.47;2.07;;;;;;;9.95;100.00;153913.75;5020725;28;20549;-75
2024/03/13 10:23:01;;;;;;;2.20;2.00;;;;;;;9.93;100.00;153908.59;5007954;28;20979;-74
2024/03/13 10:25:29;;;;;;;3.53;2.10;;;;;;;9.98;100.00;153921.53;5023565;28;20458;-74
2024/03/13 10:27:56;;;;;;;2.30;2.10;;;;;;;9.98;100.00;153922.78;5025051;28;20510;-75
2024/03/13 10:30:24;;;;;;;3.07;2.53;;;;;;;10.04;100.00;153937.03;5023211;28;20459;-74
2024/03/13 10:32:51;;;;;;;2.33;2.00;;;;;;;10.05;100.00;153940.94;5018580;28;20486;-74
2024/03/13 10:35:18;;;;;;;2.87;1.83;;;;;;;10.15;100.00;153965.56;5033725;28;20466;-75
2024/03/13 10:37:45;;;;;;;3.07;2.00;;;;;;;10.19;100.00;153975.94;5021365;28;20463;-74
2024/03/13 10:40:14;;;;;;;2.97;2.30;;;;;;;10.19;100.00;153975.94;5020770;28;20586;-75
2024/03/13 10:42:41;;;;;;;2.67;2.17;;;;;;;10.21;100.00;153981.09;5018295;28;20498;-75
2024/03/13 10:45:11;;;;;;;3.20;2.23;;;;;;;10.24;100.00;153988.88;5003448;28;20451;-75
2024/03/13 10:47:37;;;;;;;3.23;2.60;;;;;;;10.27;100.00;153996.66;5031032;28;21106;-75
2024/03/13 10:50:20;;;;;;;2.63;2.30;;;;;;;10.28;100.00;153999.22;4987574;28;20877;-74
2024/03/13 10:52:46;;;;;;;2.73;2.53;;;;;;;10.31;100.00;154008.28;5003258;28;20475;-75
2024/03/13 10:55:13;;;;;;;2.43;2.20;;;;;;;10.29;100.00;154001.81;5018879;28;20458;-75
2024/03/13 10:57:41;;;;;;;2.33;1.93;;;;;;;10.32;100.00;154009.59;5018906;28;20456;-75
2024/03/13 11:00:11;;;;;;;2.53;2.33;;;;;;;10.37;100.00;154022.53;5031376;28;20550;-75
2024/03/13 11:02:38;;;;;;;2.60;2.40;;;;;;;10.39;100.00;154027.69;5017945;28;20447;-75
2024/03/13 11:05:06;;;;;;;2.93;2.07;;;;;;;10.43;100.00;154038.09;5019645;28;20838;-75
2024/03/13 11:07:33;;;;;;;2.53;2.30;;;;;;;10.50;100.00;154056.19;5030657;28;20533;-75
2024/03/13 11:09:59;;;;;;;4.60;2.50;;;;;;;10.51;100.00;154058.75;5020603;28;20474;-75
2024/03/13 11:12:27;;;;;;;3.60;2.23;;;;;;;10.56;100.00;154071.75;5032154;28;20476;-75
2024/03/13 11:14:55;;;;;;;3.13;2.57;;;;;;;10.60;100.00;154082.06;5019693;28;20467;-75
2024/03/13 11:17:22;;;;;;;4.80;2.77;;;;;;;10.63;100.00;154088.56;5021585;28;20479;-75
2024/03/13 11:19:49;;;;;;;2.97;2.50;;;;;;;10.58;100.00;154076.91;5003012;28;20455;-75
2024/03/13 11:22:16;;;;;;;3.77;2.60;;;;;;;10.57;100.00;154074.31;5002415;28;20452;-75
2024/03/13 11:24:43;;;;;;;3.67;2.90;;;;;;;10.59;100.00;154079.47;5019998;28;20454;-75
2024/03/13 11:27:10;;;;;;;3.57;2.60;;;;;;;10.59;100.00;154079.47;5019406;28;20463;-75
2024/03/13 11:29:40;;;;;;;3.40;2.53;;;;;;;10.63;100.00;154089.84;5004536;28;21003;-75
2024/03/13 11:32:08;;;;;;;3.10;2.80;;;;;;;10.68;100.00;154102.78;5020637;28;20479;-75
2024/03/13 11:34:36;;;;;;;3.53;2.60;;;;;;;10.68;100.00;154102.78;5016494;28;20549;-76
2024/03/13 11:37:04;;;;;;;3.73;3.27;;;;;;;10.69;100.00;154104.09;5018467;28;20450;-75
2024/03/13 11:39:30;;;;;;;4.17;3.40;;;;;;;10.75;100.00;154120.91;5018314;28;20562;-75
2024/03/13 11:42:07;;;;;;;4.63;2.90;;;;;;;10.80;100.00;154133.84;5019757;28;20454;-76
2024/03/13 11:44:37;;;;;;;3.50;3.00;;;;;;;10.86;100.00;154149.41;5037822;28;20446;-75
2024/03/13 11:47:05;;;;;;;4.83;2.80;;;;;;;10.86;100.00;154149.41;4999978;28;20450;-75